sensor_id;sensor_type;location;lat;lon;timestamp;P1;durP1;ratioP1;P2;durP2;ratioP2
11394;SDS011;5753;54.402;10.220;2023-03-01T00:01:23;26.02;;;13.90;;
11394;SDS011;5753;54.402;10.220;2023-03-01T00:03:51;34.75;;;15.50;;
11394;SDS011;5753;54.402;10.220;2023-03-01T00:06:18;33.30;;;14.98;;
11394;SDS011;5753;54.402;10.220;2023-03-01T00:08:45;27.80;;;13.60;;
11394;SDS011;5753;54.402;10.220;2023-03-01T00:13:46;38.17;;;19.17;;
11394;SDS011;5753;54.402;10.220;2023-03-01T00:16:16;23.67;;;12.95;;
11394;SDS011;5753;54.402;10.220;2023-03-01T00:18:44;34.42;;;16.02;;
11394;SDS011;5753;54.402;10.220;2023-03-01T00:21:11;18.15;;;13.70;;
11394;SDS011;5753;54.402;10.220;2023-03-01T00:23:37;28.23;;;16.17;;
11394;SDS011;5753;54.402;10.220;2023-03-01T00:26:12;24.55;;;15.55;;
11394;SDS011;5753;54.402;10.220;2023-03-01T00:28:39;31.42;;;16.15;;
11394;SDS011;5753;54.402;10.220;2023-03-01T00:31:05;24.35;;;12.45;;
11394;SDS011;5753;54.402;10.220;2023-03-01T00:33:40;32.47;;;13.20;;
11394;SDS011;5753;54.402;10.220;2023-03-01T00:36:07;37.58;;;17.63;;
11394;SDS011;5753;54.402;10.220;2023-03-01T00:38:35;20.25;;;13.50;;
11394;SDS011;5753;54.402;10.220;2023-03-01T00:41:03;33.92;;;15.77;;
11394;SDS011;5753;54.402;10.220;2023-03-01T00:43:33;31.67;;;16.15;;
11394;SDS011;5753;54.402;10.220;2023-03-01T00:46:05;25.98;;;13.18;;
11394;SDS011;5753;54.402;10.220;2023-03-01T00:48:33;29.42;;;17.05;;
11394;SDS011;5753;54.402;10.220;2023-03-01T00:51:04;29.55;;;19.10;;
11394;SDS011;5753;54.402;10.220;2023-03-01T00:53:30;35.90;;;16.10;;
11394;SDS011;5753;54.402;10.220;2023-03-01T00:55:57;29.95;;;13.73;;
11394;SDS011;5753;54.402;10.220;2023-03-01T00:58:24;21.55;;;14.85;;
11394;SDS011;5753;54.402;10.220;2023-03-01T01:00:50;30.30;;;14.85;;
11394;SDS011;5753;54.402;10.220;2023-03-01T01:03:17;34.00;;;14.00;;
11394;SDS011;5753;54.402;10.220;2023-03-01T01:05:44;39.17;;;15.32;;
11394;SDS011;5753;54.402;10.220;2023-03-01T01:08:10;26.42;;;15.63;;
11394;SDS011;5753;54.402;10.220;2023-03-01T01:10:37;24.60;;;13.32;;
11394;SDS011;5753;54.402;10.220;2023-03-01T01:13:03;33.90;;;17.50;;
11394;SDS011;5753;54.402;10.220;2023-03-01T01:15:33;30.35;;;14.00;;
11394;SDS011;5753;54.402;10.220;2023-03-01T01:17:59;25.15;;;14.77;;
11394;SDS011;5753;54.402;10.220;2023-03-01T01:20:26;38.30;;;17.38;;
11394;SDS011;5753;54.402;10.220;2023-03-01T01:22:52;29.85;;;16.20;;
11394;SDS011;5753;54.402;10.220;2023-03-01T01:25:19;21.63;;;15.52;;
11394;SDS011;5753;54.402;10.220;2023-03-01T01:27:45;23.38;;;13.15;;
11394;SDS011;5753;54.402;10.220;2023-03-01T01:30:11;25.23;;;14.35;;
11394;SDS011;5753;54.402;10.220;2023-03-01T01:32:38;27.85;;;17.15;;
11394;SDS011;5753;54.402;10.220;2023-03-01T01:35:04;27.58;;;16.08;;
11394;SDS011;5753;54.402;10.220;2023-03-01T01:37:31;30.05;;;15.88;;
11394;SDS011;5753;54.402;10.220;2023-03-01T01:40:02;37.25;;;15.68;;
11394;SDS011;5753;54.402;10.220;2023-03-01T01:42:29;32.65;;;15.90;;
11394;SDS011;5753;54.402;10.220;2023-03-01T01:48:02;27.95;;;13.82;;
11394;SDS011;5753;54.402;10.220;2023-03-01T01:50:32;29.17;;;14.75;;
11394;SDS011;5753;54.402;10.220;2023-03-01T01:53:10;27.17;;;15.10;;
11394;SDS011;5753;54.402;10.220;2023-03-01T01:55:43;25.42;;;14.70;;
11394;SDS011;5753;54.402;10.220;2023-03-01T01:58:13;28.13;;;12.63;;
11394;SDS011;5753;54.402;10.220;2023-03-01T02:00:42;20.15;;;10.13;;
11394;SDS011;5753;54.402;10.220;2023-03-01T02:03:13;21.60;;;12.88;;
11394;SDS011;5753;54.402;10.220;2023-03-01T02:05:48;27.15;;;13.52;;
11394;SDS011;5753;54.402;10.220;2023-03-01T02:08:30;20.20;;;12.43;;
11394;SDS011;5753;54.402;10.220;2023-03-01T02:11:00;22.85;;;12.27;;
11394;SDS011;5753;54.402;10.220;2023-03-01T02:13:29;21.50;;;11.93;;
11394;SDS011;5753;54.402;10.220;2023-03-01T02:15:57;19.77;;;10.52;;
11394;SDS011;5753;54.402;10.220;2023-03-01T02:18:24;17.70;;;10.13;;
11394;SDS011;5753;54.402;10.220;2023-03-01T02:20:54;23.92;;;12.90;;
11394;SDS011;5753;54.402;10.220;2023-03-01T02:23:22;32.13;;;11.35;;
11394;SDS011;5753;54.402;10.220;2023-03-01T02:25:59;26.88;;;13.38;;
11394;SDS011;5753;54.402;10.220;2023-03-01T02:28:33;32.50;;;12.40;;
11394;SDS011;5753;54.402;10.220;2023-03-01T02:31:02;29.75;;;11.38;;
11394;SDS011;5753;54.402;10.220;2023-03-01T02:33:51;22.90;;;11.23;;
11394;SDS011;5753;54.402;10.220;2023-03-01T02:36:19;17.33;;;8.90;;
11394;SDS011;5753;54.402;10.220;2023-03-01T02:38:48;18.42;;;10.77;;
11394;SDS011;5753;54.402;10.220;2023-03-01T02:41:19;22.52;;;13.18;;
11394;SDS011;5753;54.402;10.220;2023-03-01T02:43:47;10.13;;;8.40;;
11394;SDS011;5753;54.402;10.220;2023-03-01T02:46:15;15.32;;;10.20;;
11394;SDS011;5753;54.402;10.220;2023-03-01T02:48:45;22.30;;;9.48;;
11394;SDS011;5753;54.402;10.220;2023-03-01T02:54:12;12.82;;;8.52;;
11394;SDS011;5753;54.402;10.220;2023-03-01T02:56:41;21.90;;;10.57;;
11394;SDS011;5753;54.402;10.220;2023-03-01T02:59:09;17.40;;;10.13;;
11394;SDS011;5753;54.402;10.220;2023-03-01T03:01:35;15.13;;;8.95;;
11394;SDS011;5753;54.402;10.220;2023-03-01T03:04:03;38.15;;;12.02;;
11394;SDS011;5753;54.402;10.220;2023-03-01T03:06:30;29.38;;;9.50;;
11394;SDS011;5753;54.402;10.220;2023-03-01T03:08:56;38.65;;;12.45;;
11394;SDS011;5753;54.402;10.220;2023-03-01T03:11:23;14.88;;;8.40;;
11394;SDS011;5753;54.402;10.220;2023-03-01T03:13:49;20.63;;;10.88;;
11394;SDS011;5753;54.402;10.220;2023-03-01T03:16:17;16.15;;;8.80;;
11394;SDS011;5753;54.402;10.220;2023-03-01T03:18:43;17.02;;;9.15;;
11394;SDS011;5753;54.402;10.220;2023-03-01T03:21:10;17.88;;;9.35;;
11394;SDS011;5753;54.402;10.220;2023-03-01T03:23:37;15.43;;;8.57;;
11394;SDS011;5753;54.402;10.220;2023-03-01T03:26:04;17.60;;;10.50;;
11394;SDS011;5753;54.402;10.220;2023-03-01T03:28:31;16.55;;;10.23;;
11394;SDS011;5753;54.402;10.220;2023-03-01T03:30:59;11.23;;;9.25;;
11394;SDS011;5753;54.402;10.220;2023-03-01T03:33:30;23.77;;;9.80;;
11394;SDS011;5753;54.402;10.220;2023-03-01T03:35:56;33.40;;;11.15;;
11394;SDS011;5753;54.402;10.220;2023-03-01T03:38:22;23.02;;;6.82;;
11394;SDS011;5753;54.402;10.220;2023-03-01T03:40:49;20.70;;;8.80;;
11394;SDS011;5753;54.402;10.220;2023-03-01T03:43:18;19.85;;;9.50;;
11394;SDS011;5753;54.402;10.220;2023-03-01T03:45:47;16.65;;;9.18;;
11394;SDS011;5753;54.402;10.220;2023-03-01T03:48:15;12.88;;;6.50;;
11394;SDS011;5753;54.402;10.220;2023-03-01T03:50:46;16.08;;;9.70;;
11394;SDS011;5753;54.402;10.220;2023-03-01T03:53:20;19.92;;;9.35;;
11394;SDS011;5753;54.402;10.220;2023-03-01T03:55:48;10.25;;;7.32;;
11394;SDS011;5753;54.402;10.220;2023-03-01T03:58:17;18.55;;;8.02;;
11394;SDS011;5753;54.402;10.220;2023-03-01T04:00:45;20.25;;;7.97;;
11394;SDS011;5753;54.402;10.220;2023-03-01T04:03:14;32.55;;;8.38;;
11394;SDS011;5753;54.402;10.220;2023-03-01T04:05:42;14.52;;;8.13;;
11394;SDS011;5753;54.402;10.220;2023-03-01T04:08:08;14.77;;;9.48;;
11394;SDS011;5753;54.402;10.220;2023-03-01T04:13:06;26.00;;;7.75;;
11394;SDS011;5753;54.402;10.220;2023-03-01T04:15:35;20.75;;;7.18;;
11394;SDS011;5753;54.402;10.220;2023-03-01T04:18:02;11.10;;;7.15;;
11394;SDS011;5753;54.402;10.220;2023-03-01T04:20:29;14.45;;;6.97;;
11394;SDS011;5753;54.402;10.220;2023-03-01T04:23:00;14.85;;;7.85;;
11394;SDS011;5753;54.402;10.220;2023-03-01T04:25:41;18.27;;;8.25;;
11394;SDS011;5753;54.402;10.220;2023-03-01T04:28:11;18.15;;;8.32;;
11394;SDS011;5753;54.402;10.220;2023-03-01T04:30:37;16.73;;;8.10;;
11394;SDS011;5753;54.402;10.220;2023-03-01T04:33:08;13.80;;;8.43;;
11394;SDS011;5753;54.402;10.220;2023-03-01T04:35:35;23.75;;;7.97;;
11394;SDS011;5753;54.402;10.220;2023-03-01T04:38:02;26.85;;;8.70;;
11394;SDS011;5753;54.402;10.220;2023-03-01T04:40:29;21.73;;;9.23;;
11394;SDS011;5753;54.402;10.220;2023-03-01T04:42:55;20.02;;;7.68;;
11394;SDS011;5753;54.402;10.220;2023-03-01T04:45:22;11.02;;;7.35;;
11394;SDS011;5753;54.402;10.220;2023-03-01T04:47:49;29.92;;;10.18;;
11394;SDS011;5753;54.402;10.220;2023-03-01T04:50:17;26.92;;;8.93;;
11394;SDS011;5753;54.402;10.220;2023-03-01T04:52:48;18.77;;;9.23;;
11394;SDS011;5753;54.402;10.220;2023-03-01T04:55:14;45.22;;;13.55;;
11394;SDS011;5753;54.402;10.220;2023-03-01T04:57:41;34.50;;;7.57;;
11394;SDS011;5753;54.402;10.220;2023-03-01T05:00:09;12.40;;;7.68;;
11394;SDS011;5753;54.402;10.220;2023-03-01T05:07:50;35.50;;;9.73;;
11394;SDS011;5753;54.402;10.220;2023-03-01T05:10:22;15.23;;;9.02;;
11394;SDS011;5753;54.402;10.220;2023-03-01T05:12:49;18.27;;;5.85;;
11394;SDS011;5753;54.402;10.220;2023-03-01T05:15:17;16.58;;;7.40;;
11394;SDS011;5753;54.402;10.220;2023-03-01T05:17:43;34.10;;;9.13;;
11394;SDS011;5753;54.402;10.220;2023-03-01T05:20:11;22.10;;;9.13;;
11394;SDS011;5753;54.402;10.220;2023-03-01T05:22:37;61.53;;;14.02;;
11394;SDS011;5753;54.402;10.220;2023-03-01T05:25:03;22.65;;;9.48;;
11394;SDS011;5753;54.402;10.220;2023-03-01T05:27:30;34.53;;;12.32;;
11394;SDS011;5753;54.402;10.220;2023-03-01T05:29:56;16.55;;;9.60;;
11394;SDS011;5753;54.402;10.220;2023-03-01T05:32:23;17.85;;;8.18;;
11394;SDS011;5753;54.402;10.220;2023-03-01T05:34:49;41.53;;;12.00;;
11394;SDS011;5753;54.402;10.220;2023-03-01T05:37:17;21.92;;;9.88;;
11394;SDS011;5753;54.402;10.220;2023-03-01T05:39:44;35.28;;;12.95;;
11394;SDS011;5753;54.402;10.220;2023-03-01T05:42:10;21.23;;;9.77;;
11394;SDS011;5753;54.402;10.220;2023-03-01T05:44:37;18.40;;;10.80;;
11394;SDS011;5753;54.402;10.220;2023-03-01T05:47:03;35.30;;;13.43;;
11394;SDS011;5753;54.402;10.220;2023-03-01T05:49:29;43.00;;;11.93;;
11394;SDS011;5753;54.402;10.220;2023-03-01T05:51:56;23.67;;;11.93;;
11394;SDS011;5753;54.402;10.220;2023-03-01T05:54:22;19.88;;;10.05;;
11394;SDS011;5753;54.402;10.220;2023-03-01T05:56:49;28.27;;;10.45;;
11394;SDS011;5753;54.402;10.220;2023-03-01T05:59:15;42.70;;;12.18;;
11394;SDS011;5753;54.402;10.220;2023-03-01T06:01:41;22.90;;;11.68;;
11394;SDS011;5753;54.402;10.220;2023-03-01T06:04:08;31.67;;;7.70;;
11394;SDS011;5753;54.402;10.220;2023-03-01T06:06:35;15.13;;;7.63;;
11394;SDS011;5753;54.402;10.220;2023-03-01T06:09:03;21.77;;;9.32;;
11394;SDS011;5753;54.402;10.220;2023-03-01T06:11:33;19.02;;;7.38;;
11394;SDS011;5753;54.402;10.220;2023-03-01T06:14:00;12.15;;;7.57;;
11394;SDS011;5753;54.402;10.220;2023-03-01T06:16:26;12.55;;;7.28;;
11394;SDS011;5753;54.402;10.220;2023-03-01T06:18:53;15.40;;;7.35;;
11394;SDS011;5753;54.402;10.220;2023-03-01T06:21:19;17.85;;;7.32;;
11394;SDS011;5753;54.402;10.220;2023-03-01T06:23:45;18.23;;;8.80;;
11394;SDS011;5753;54.402;10.220;2023-03-01T06:26:11;14.52;;;6.93;;
11394;SDS011;5753;54.402;10.220;2023-03-01T06:28:37;13.90;;;5.88;;
11394;SDS011;5753;54.402;10.220;2023-03-01T06:31:03;14.43;;;5.90;;
11394;SDS011;5753;54.402;10.220;2023-03-01T06:33:33;9.70;;;6.45;;
11394;SDS011;5753;54.402;10.220;2023-03-01T06:36:00;15.93;;;7.60;;
11394;SDS011;5753;54.402;10.220;2023-03-01T06:38:28;13.68;;;7.78;;
11394;SDS011;5753;54.402;10.220;2023-03-01T06:40:54;41.42;;;11.95;;
11394;SDS011;5753;54.402;10.220;2023-03-01T06:43:21;36.13;;;12.45;;
11394;SDS011;5753;54.402;10.220;2023-03-01T06:45:48;11.88;;;6.60;;
11394;SDS011;5753;54.402;10.220;2023-03-01T06:48:15;14.68;;;8.18;;
11394;SDS011;5753;54.402;10.220;2023-03-01T06:50:41;17.45;;;7.45;;
11394;SDS011;5753;54.402;10.220;2023-03-01T06:53:07;12.68;;;7.10;;
11394;SDS011;5753;54.402;10.220;2023-03-01T06:55:34;22.67;;;11.95;;
11394;SDS011;5753;54.402;10.220;2023-03-01T06:58:01;20.10;;;9.52;;
11394;SDS011;5753;54.402;10.220;2023-03-01T07:00:28;16.67;;;8.30;;
11394;SDS011;5753;54.402;10.220;2023-03-01T07:02:59;19.20;;;8.23;;
11394;SDS011;5753;54.402;10.220;2023-03-01T07:05:27;12.23;;;5.57;;
11394;SDS011;5753;54.402;10.220;2023-03-01T07:07:53;15.25;;;7.40;;
11394;SDS011;5753;54.402;10.220;2023-03-01T07:10:21;8.25;;;6.22;;
11394;SDS011;5753;54.402;10.220;2023-03-01T07:12:47;13.05;;;7.35;;
11394;SDS011;5753;54.402;10.220;2023-03-01T07:15:13;14.30;;;7.25;;
11394;SDS011;5753;54.402;10.220;2023-03-01T07:17:40;14.77;;;6.13;;
11394;SDS011;5753;54.402;10.220;2023-03-01T07:20:06;16.05;;;7.68;;
11394;SDS011;5753;54.402;10.220;2023-03-01T07:22:33;20.40;;;7.65;;
11394;SDS011;5753;54.402;10.220;2023-03-01T07:24:59;10.43;;;5.45;;
11394;SDS011;5753;54.402;10.220;2023-03-01T07:27:25;24.83;;;6.72;;
11394;SDS011;5753;54.402;10.220;2023-03-01T07:29:51;21.48;;;8.82;;
11394;SDS011;5753;54.402;10.220;2023-03-01T07:32:17;12.13;;;7.55;;
11394;SDS011;5753;54.402;10.220;2023-03-01T07:34:44;15.73;;;6.18;;
11394;SDS011;5753;54.402;10.220;2023-03-01T07:37:10;11.15;;;6.80;;
11394;SDS011;5753;54.402;10.220;2023-03-01T07:39:36;14.07;;;6.93;;
11394;SDS011;5753;54.402;10.220;2023-03-01T07:42:02;16.80;;;8.15;;
11394;SDS011;5753;54.402;10.220;2023-03-01T07:44:28;15.00;;;8.43;;
11394;SDS011;5753;54.402;10.220;2023-03-01T07:46:54;16.70;;;8.52;;
11394;SDS011;5753;54.402;10.220;2023-03-01T07:49:23;18.77;;;9.80;;
11394;SDS011;5753;54.402;10.220;2023-03-01T07:51:51;26.25;;;12.00;;
11394;SDS011;5753;54.402;10.220;2023-03-01T07:54:17;11.60;;;6.57;;
11394;SDS011;5753;54.402;10.220;2023-03-01T07:56:43;22.55;;;13.05;;
11394;SDS011;5753;54.402;10.220;2023-03-01T07:59:10;14.32;;;7.70;;
11394;SDS011;5753;54.402;10.220;2023-03-01T08:01:36;16.00;;;11.73;;
11394;SDS011;5753;54.402;10.220;2023-03-01T08:04:02;9.75;;;7.47;;
11394;SDS011;5753;54.402;10.220;2023-03-01T08:06:31;12.88;;;7.38;;
11394;SDS011;5753;54.402;10.220;2023-03-01T08:09:00;11.52;;;5.93;;
11394;SDS011;5753;54.402;10.220;2023-03-01T08:11:26;20.80;;;10.20;;
11394;SDS011;5753;54.402;10.220;2023-03-01T08:13:53;16.08;;;7.80;;
11394;SDS011;5753;54.402;10.220;2023-03-01T08:16:20;14.75;;;8.05;;
11394;SDS011;5753;54.402;10.220;2023-03-01T08:18:46;14.48;;;7.57;;
11394;SDS011;5753;54.402;10.220;2023-03-01T08:21:13;22.92;;;9.60;;
11394;SDS011;5753;54.402;10.220;2023-03-01T08:23:41;16.63;;;6.90;;
11394;SDS011;5753;54.402;10.220;2023-03-01T08:28:39;37.20;;;8.02;;
11394;SDS011;5753;54.402;10.220;2023-03-01T08:31:16;51.80;;;9.85;;
11394;SDS011;5753;54.402;10.220;2023-03-01T08:33:45;35.97;;;11.10;;
11394;SDS011;5753;54.402;10.220;2023-03-01T08:36:16;17.98;;;6.75;;
11394;SDS011;5753;54.402;10.220;2023-03-01T08:38:42;18.85;;;8.07;;
11394;SDS011;5753;54.402;10.220;2023-03-01T08:41:09;38.85;;;10.75;;
11394;SDS011;5753;54.402;10.220;2023-03-01T08:43:35;14.73;;;7.45;;
11394;SDS011;5753;54.402;10.220;2023-03-01T08:46:01;12.18;;;7.00;;
11394;SDS011;5753;54.402;10.220;2023-03-01T08:48:28;41.22;;;7.38;;
11394;SDS011;5753;54.402;10.220;2023-03-01T08:50:54;27.25;;;7.63;;
11394;SDS011;5753;54.402;10.220;2023-03-01T08:53:20;10.70;;;5.90;;
11394;SDS011;5753;54.402;10.220;2023-03-01T08:55:47;16.83;;;7.40;;
11394;SDS011;5753;54.402;10.220;2023-03-01T08:58:13;18.17;;;8.05;;
11394;SDS011;5753;54.402;10.220;2023-03-01T09:00:39;33.95;;;6.88;;
11394;SDS011;5753;54.402;10.220;2023-03-01T09:03:05;16.67;;;6.07;;
11394;SDS011;5753;54.402;10.220;2023-03-01T09:05:32;14.95;;;8.23;;
11394;SDS011;5753;54.402;10.220;2023-03-01T09:07:59;13.15;;;7.57;;
11394;SDS011;5753;54.402;10.220;2023-03-01T09:10:25;28.58;;;15.25;;
11394;SDS011;5753;54.402;10.220;2023-03-01T09:12:51;20.05;;;7.47;;
11394;SDS011;5753;54.402;10.220;2023-03-01T09:15:18;13.23;;;7.07;;
11394;SDS011;5753;54.402;10.220;2023-03-01T09:17:44;10.65;;;6.80;;
11394;SDS011;5753;54.402;10.220;2023-03-01T09:20:10;9.80;;;5.82;;
11394;SDS011;5753;54.402;10.220;2023-03-01T09:22:36;12.75;;;7.15;;
11394;SDS011;5753;54.402;10.220;2023-03-01T09:25:02;11.68;;;6.30;;
11394;SDS011;5753;54.402;10.220;2023-03-01T09:27:29;9.90;;;6.22;;
11394;SDS011;5753;54.402;10.220;2023-03-01T09:29:55;12.93;;;7.10;;
11394;SDS011;5753;54.402;10.220;2023-03-01T09:32:21;19.85;;;7.85;;
11394;SDS011;5753;54.402;10.220;2023-03-01T09:34:47;12.27;;;6.50;;
11394;SDS011;5753;54.402;10.220;2023-03-01T09:37:30;13.88;;;7.40;;
11394;SDS011;5753;54.402;10.220;2023-03-01T09:39:59;14.65;;;10.82;;
11394;SDS011;5753;54.402;10.220;2023-03-01T09:42:27;12.18;;;7.13;;
11394;SDS011;5753;54.402;10.220;2023-03-01T09:45:06;14.15;;;8.68;;
11394;SDS011;5753;54.402;10.220;2023-03-01T09:47:45;10.27;;;8.30;;
11394;SDS011;5753;54.402;10.220;2023-03-01T09:50:17;16.10;;;7.43;;
11394;SDS011;5753;54.402;10.220;2023-03-01T09:55:29;17.60;;;8.15;;
11394;SDS011;5753;54.402;10.220;2023-03-01T10:00:54;18.45;;;6.10;;
11394;SDS011;5753;54.402;10.220;2023-03-01T10:03:26;8.63;;;4.93;;
11394;SDS011;5753;54.402;10.220;2023-03-01T10:05:59;12.32;;;7.18;;
11394;SDS011;5753;54.402;10.220;2023-03-01T10:08:47;21.77;;;7.43;;
11394;SDS011;5753;54.402;10.220;2023-03-01T10:11:35;11.60;;;7.38;;
11394;SDS011;5753;54.402;10.220;2023-03-01T10:16:52;17.92;;;9.80;;
11394;SDS011;5753;54.402;10.220;2023-03-01T10:22:13;12.15;;;5.43;;
11394;SDS011;5753;54.402;10.220;2023-03-01T10:24:49;11.63;;;6.45;;
11394;SDS011;5753;54.402;10.220;2023-03-01T10:32:42;9.20;;;6.00;;
11394;SDS011;5753;54.402;10.220;2023-03-01T10:35:42;8.30;;;5.43;;
11394;SDS011;5753;54.402;10.220;2023-03-01T10:40:33;5.03;;;3.92;;
11394;SDS011;5753;54.402;10.220;2023-03-01T10:43:02;8.23;;;5.03;;
11394;SDS011;5753;54.402;10.220;2023-03-01T10:45:35;8.32;;;4.75;;
11394;SDS011;5753;54.402;10.220;2023-03-01T10:48:22;14.50;;;4.72;;
11394;SDS011;5753;54.402;10.220;2023-03-01T10:53:28;5.78;;;3.85;;
11394;SDS011;5753;54.402;10.220;2023-03-01T10:58:39;9.02;;;4.63;;
11394;SDS011;5753;54.402;10.220;2023-03-01T11:01:28;8.20;;;4.53;;
11394;SDS011;5753;54.402;10.220;2023-03-01T11:06:35;11.80;;;5.40;;
11394;SDS011;5753;54.402;10.220;2023-03-01T11:09:37;9.38;;;5.38;;
11394;SDS011;5753;54.402;10.220;2023-03-01T11:12:03;14.18;;;6.32;;
11394;SDS011;5753;54.402;10.220;2023-03-01T11:14:39;10.43;;;5.40;;
11394;SDS011;5753;54.402;10.220;2023-03-01T11:17:36;13.43;;;6.72;;
11394;SDS011;5753;54.402;10.220;2023-03-01T11:22:47;11.52;;;6.07;;
11394;SDS011;5753;54.402;10.220;2023-03-01T11:25:17;8.73;;;4.82;;
11394;SDS011;5753;54.402;10.220;2023-03-01T11:27:48;7.60;;;4.32;;
11394;SDS011;5753;54.402;10.220;2023-03-01T11:30:22;6.93;;;4.43;;
11394;SDS011;5753;54.402;10.220;2023-03-01T11:35:30;8.07;;;5.53;;
11394;SDS011;5753;54.402;10.220;2023-03-01T11:38:04;6.50;;;4.40;;
11394;SDS011;5753;54.402;10.220;2023-03-01T11:43:52;9.15;;;5.30;;
11394;SDS011;5753;54.402;10.220;2023-03-01T12:24:57;13.73;;;6.35;;
11394;SDS011;5753;54.402;10.220;2023-03-01T12:39:11;10.13;;;6.43;;
11394;SDS011;5753;54.402;10.220;2023-03-01T12:47:07;16.33;;;7.72;;
11394;SDS011;5753;54.402;10.220;2023-03-01T12:49:51;13.68;;;7.80;;
11394;SDS011;5753;54.402;10.220;2023-03-01T12:55:08;10.48;;;6.18;;
11394;SDS011;5753;54.402;10.220;2023-03-01T13:06:07;15.60;;;8.85;;
11394;SDS011;5753;54.402;10.220;2023-03-01T13:08:58;16.65;;;7.65;;
11394;SDS011;5753;54.402;10.220;2023-03-01T13:11:29;15.40;;;8.35;;
11394;SDS011;5753;54.402;10.220;2023-03-01T13:17:01;10.60;;;5.97;;
11394;SDS011;5753;54.402;10.220;2023-03-01T13:19:28;13.10;;;8.25;;
11394;SDS011;5753;54.402;10.220;2023-03-01T13:21:55;11.77;;;7.13;;
11394;SDS011;5753;54.402;10.220;2023-03-01T13:34:54;15.00;;;6.65;;
11394;SDS011;5753;54.402;10.220;2023-03-01T13:37:23;17.52;;;8.57;;
11394;SDS011;5753;54.402;10.220;2023-03-01T13:39:51;15.43;;;7.95;;
11394;SDS011;5753;54.402;10.220;2023-03-01T13:42:34;13.10;;;6.72;;
11394;SDS011;5753;54.402;10.220;2023-03-01T13:45:14;13.88;;;8.40;;
11394;SDS011;5753;54.402;10.220;2023-03-01T13:48:03;11.77;;;5.93;;
11394;SDS011;5753;54.402;10.220;2023-03-01T13:51:07;9.45;;;6.43;;
11394;SDS011;5753;54.402;10.220;2023-03-01T13:53:37;11.68;;;7.22;;
11394;SDS011;5753;54.402;10.220;2023-03-01T13:56:14;18.00;;;8.18;;
11394;SDS011;5753;54.402;10.220;2023-03-01T13:58:59;10.05;;;7.30;;
11394;SDS011;5753;54.402;10.220;2023-03-01T14:01:32;14.07;;;6.10;;
11394;SDS011;5753;54.402;10.220;2023-03-01T14:04:00;12.15;;;7.25;;
11394;SDS011;5753;54.402;10.220;2023-03-01T14:06:29;13.07;;;7.53;;
11394;SDS011;5753;54.402;10.220;2023-03-01T14:09:05;14.60;;;7.47;;
11394;SDS011;5753;54.402;10.220;2023-03-01T14:12:06;14.27;;;6.93;;
11394;SDS011;5753;54.402;10.220;2023-03-01T14:21:07;15.65;;;7.53;;
11394;SDS011;5753;54.402;10.220;2023-03-01T14:23:33;16.25;;;9.75;;
11394;SDS011;5753;54.402;10.220;2023-03-01T14:26:03;15.23;;;10.73;;
11394;SDS011;5753;54.402;10.220;2023-03-01T14:28:30;15.27;;;8.30;;
11394;SDS011;5753;54.402;10.220;2023-03-01T14:31:02;13.20;;;8.80;;
11394;SDS011;5753;54.402;10.220;2023-03-01T14:33:54;14.45;;;8.90;;
11394;SDS011;5753;54.402;10.220;2023-03-01T14:36:25;16.55;;;10.18;;
11394;SDS011;5753;54.402;10.220;2023-03-01T14:38:53;21.50;;;7.57;;
11394;SDS011;5753;54.402;10.220;2023-03-01T14:41:24;10.25;;;7.55;;
11394;SDS011;5753;54.402;10.220;2023-03-01T14:43:55;11.50;;;6.05;;
11394;SDS011;5753;54.402;10.220;2023-03-01T14:49:03;16.73;;;7.85;;
11394;SDS011;5753;54.402;10.220;2023-03-01T14:51:35;16.50;;;8.27;;
11394;SDS011;5753;54.402;10.220;2023-03-01T14:57:12;12.50;;;6.05;;
11394;SDS011;5753;54.402;10.220;2023-03-01T14:59:48;11.80;;;6.45;;
11394;SDS011;5753;54.402;10.220;2023-03-01T15:02:18;12.15;;;5.13;;
11394;SDS011;5753;54.402;10.220;2023-03-01T15:04:48;9.98;;;6.72;;
11394;SDS011;5753;54.402;10.220;2023-03-01T15:07:17;7.53;;;4.72;;
11394;SDS011;5753;54.402;10.220;2023-03-01T15:09:44;17.42;;;7.13;;
11394;SDS011;5753;54.402;10.220;2023-03-01T15:17:54;17.60;;;9.13;;
11394;SDS011;5753;54.402;10.220;2023-03-01T15:20:23;11.43;;;7.72;;
11394;SDS011;5753;54.402;10.220;2023-03-01T15:22:51;14.77;;;7.90;;
11394;SDS011;5753;54.402;10.220;2023-03-01T15:25:19;12.95;;;6.70;;
11394;SDS011;5753;54.402;10.220;2023-03-01T15:27:51;9.82;;;5.90;;
11394;SDS011;5753;54.402;10.220;2023-03-01T15:30:32;10.65;;;6.10;;
11394;SDS011;5753;54.402;10.220;2023-03-01T15:35:58;12.00;;;7.05;;
11394;SDS011;5753;54.402;10.220;2023-03-01T15:40:57;12.23;;;7.05;;
11394;SDS011;5753;54.402;10.220;2023-03-01T15:46:12;12.18;;;6.75;;
11394;SDS011;5753;54.402;10.220;2023-03-01T15:48:48;16.02;;;6.75;;
11394;SDS011;5753;54.402;10.220;2023-03-01T15:51:20;12.45;;;7.05;;
11394;SDS011;5753;54.402;10.220;2023-03-01T15:53:53;15.10;;;8.93;;
11394;SDS011;5753;54.402;10.220;2023-03-01T15:56:20;14.15;;;7.78;;
11394;SDS011;5753;54.402;10.220;2023-03-01T15:58:46;14.88;;;8.25;;
11394;SDS011;5753;54.402;10.220;2023-03-01T16:01:13;13.75;;;7.43;;
11394;SDS011;5753;54.402;10.220;2023-03-01T16:03:44;15.70;;;9.07;;
11394;SDS011;5753;54.402;10.220;2023-03-01T16:06:11;8.98;;;6.53;;
11394;SDS011;5753;54.402;10.220;2023-03-01T16:08:38;8.52;;;5.50;;
11394;SDS011;5753;54.402;10.220;2023-03-01T16:11:05;15.68;;;6.55;;
11394;SDS011;5753;54.402;10.220;2023-03-01T16:13:44;11.27;;;6.88;;
11394;SDS011;5753;54.402;10.220;2023-03-01T16:16:11;8.73;;;5.43;;
11394;SDS011;5753;54.402;10.220;2023-03-01T16:18:41;14.18;;;6.43;;
11394;SDS011;5753;54.402;10.220;2023-03-01T16:21:11;19.45;;;7.97;;
11394;SDS011;5753;54.402;10.220;2023-03-01T16:23:43;14.23;;;9.02;;
11394;SDS011;5753;54.402;10.220;2023-03-01T16:26:10;15.57;;;7.68;;
11394;SDS011;5753;54.402;10.220;2023-03-01T16:28:38;16.42;;;9.45;;
11394;SDS011;5753;54.402;10.220;2023-03-01T16:31:05;20.65;;;7.72;;
11394;SDS011;5753;54.402;10.220;2023-03-01T16:33:31;19.98;;;9.63;;
11394;SDS011;5753;54.402;10.220;2023-03-01T16:35:59;14.25;;;7.40;;
11394;SDS011;5753;54.402;10.220;2023-03-01T16:38:32;11.80;;;8.68;;
11394;SDS011;5753;54.402;10.220;2023-03-01T16:40:59;14.57;;;9.65;;
11394;SDS011;5753;54.402;10.220;2023-03-01T16:43:25;20.98;;;9.00;;
11394;SDS011;5753;54.402;10.220;2023-03-01T16:45:52;14.32;;;8.25;;
11394;SDS011;5753;54.402;10.220;2023-03-01T16:48:18;26.17;;;10.35;;
11394;SDS011;5753;54.402;10.220;2023-03-01T16:50:44;24.05;;;10.20;;
11394;SDS011;5753;54.402;10.220;2023-03-01T16:53:19;21.75;;;13.50;;
11394;SDS011;5753;54.402;10.220;2023-03-01T16:55:52;29.98;;;11.05;;
11394;SDS011;5753;54.402;10.220;2023-03-01T17:00:45;18.30;;;8.88;;
11394;SDS011;5753;54.402;10.220;2023-03-01T17:03:11;23.10;;;9.75;;
11394;SDS011;5753;54.402;10.220;2023-03-01T17:05:39;18.02;;;9.02;;
11394;SDS011;5753;54.402;10.220;2023-03-01T17:08:06;17.98;;;10.43;;
11394;SDS011;5753;54.402;10.220;2023-03-01T17:10:32;26.45;;;12.73;;
11394;SDS011;5753;54.402;10.220;2023-03-01T17:12:58;17.17;;;10.15;;
11394;SDS011;5753;54.402;10.220;2023-03-01T17:15:27;15.43;;;11.07;;
11394;SDS011;5753;54.402;10.220;2023-03-01T17:17:54;24.33;;;13.52;;
11394;SDS011;5753;54.402;10.220;2023-03-01T17:20:20;19.17;;;10.85;;
11394;SDS011;5753;54.402;10.220;2023-03-01T17:22:46;21.25;;;12.20;;
11394;SDS011;5753;54.402;10.220;2023-03-01T17:25:12;26.88;;;13.13;;
11394;SDS011;5753;54.402;10.220;2023-03-01T17:27:39;22.10;;;12.13;;